Time;durP1;ratioP1;P1;durP2;ratioP2;P2;SDS_P1;SDS_P2;PMS_P1;PMS_P2;Temp;Humidity;BMP_temperature;BMP_pressure;BME280_temperature;BME280_humidity;BME280_pressure;Samples;Min_cycle;Max_cycle;Signal;HPM_P1;HPM_P2
2022/08/21 00:03:08;;;;;;;8.23;7.47;;;16.50;99.90;;;;;;8347674;28;20186;-71
2022/08/21 00:07:09;;;;;;;9.50;8.50;;;16.50;99.90;;;;;;8348796;28;20175;-69
2022/08/21 00:11:10;;;;;;;9.60;8.00;;;16.50;99.90;;;;;;8349488;28;20619;-69
2022/08/21 00:15:14;;;;;;;8.10;7.30;;;16.50;99.90;;;;;;8346606;28;20206;-68
2022/08/21 00:19:15;;;;;;;11.17;8.83;;;16.50;99.90;;;;;;8349340;28;20336;-69
2022/08/21 00:23:16;;;;;;;10.10;8.77;;;16.50;99.90;;;;;;8346487;28;20178;-68
2022/08/21 00:27:17;;;;;;;10.20;9.20;;;16.50;99.90;;;;;;8348562;28;20496;-68
2022/08/21 00:31:18;;;;;;;12.10;9.80;;;16.50;99.90;;;;;;8347934;28;20239;-69
2022/08/21 00:35:23;;;;;;;9.80;8.80;;;16.50;99.90;;;;;;8347105;28;20196;-68
2022/08/21 00:39:24;;;;;;;11.00;9.50;;;16.50;99.90;;;;;;8360740;28;20273;-67
2022/08/21 00:43:28;;;;;;;10.53;9.27;;;16.50;99.90;;;;;;8349788;28;20595;-67
2022/08/21 00:47:29;;;;;;;11.00;9.83;;;16.40;99.90;;;;;;8365993;28;20222;-69
2022/08/21 00:51:43;;;;;;;11.83;10.47;;;16.40;99.90;;;;;;8349306;28;20205;-67
2022/08/21 00:55:45;;;;;;;10.60;9.43;;;16.40;99.90;;;;;;8348606;28;20289;-67
2022/08/21 00:59:50;;;;;;;14.03;11.13;;;16.40;99.90;;;;;;8350446;28;20206;-68
2022/08/21 01:03:51;;;;;;;12.63;11.33;;;16.40;99.90;;;;;;8363529;28;20280;-67
2022/08/21 01:07:52;;;;;;;11.40;10.30;;;16.40;99.90;;;;;;8348274;28;20174;-68
2022/08/21 01:11:54;;;;;;;14.60;11.87;;;16.40;99.90;;;;;;8344920;28;20201;-68
2022/08/21 01:15:59;;;;;;;18.23;12.80;;;16.40;99.90;;;;;;8346908;28;20201;-67
2022/08/21 01:20:02;;;;;;;14.37;12.33;;;16.50;99.90;;;;;;8349240;28;20216;-68
2022/08/21 01:24:03;;;;;;;17.50;13.03;;;16.50;99.90;;;;;;8347946;28;20239;-68
2022/08/21 01:28:13;;;;;;;16.00;13.83;;;16.50;99.90;;;;;;8347468;28;20178;-68
2022/08/21 01:32:17;;;;;;;14.90;13.03;;;16.50;99.90;;;;;;8348500;28;20213;-68
2022/08/21 01:36:18;;;;;;;16.50;13.50;;;16.50;99.90;;;;;;8348537;28;20179;-67
2022/08/21 01:40:19;;;;;;;16.23;13.70;;;16.50;99.90;;;;;;8348787;28;20247;-68
2022/08/21 01:44:24;;;;;;;19.03;15.90;;;16.50;99.90;;;;;;8352101;28;20188;-68
2022/08/21 01:48:25;;;;;;;21.57;16.03;;;16.50;99.90;;;;;;8351363;28;20178;-67
2022/08/21 01:52:26;;;;;;;19.87;15.47;;;16.50;99.90;;;;;;8350076;28;20216;-68
2022/08/21 01:56:27;;;;;;;16.90;15.07;;;16.50;99.90;;;;;;8360989;28;20204;-68
2022/08/21 02:00:28;;;;;;;18.70;15.43;;;16.60;99.90;;;;;;8355295;28;20206;-68
2022/08/21 02:04:30;;;;;;;19.77;16.40;;;16.60;99.90;;;;;;8354899;28;20177;-67
2022/08/21 02:08:31;;;;;;;25.50;17.73;;;16.60;99.90;;;;;;8351795;28;20244;-67
2022/08/21 02:12:32;;;;;;;22.67;17.13;;;16.60;99.90;;;;;;8353373;28;20205;-67
2022/08/21 02:16:33;;;;;;;23.87;17.37;;;16.70;99.90;;;;;;8351188;28;20202;-67
2022/08/21 02:20:37;;;;;;;21.80;17.10;;;16.70;99.90;;;;;;8352655;28;20232;-67
2022/08/21 02:24:39;;;;;;;24.07;17.40;;;16.70;99.90;;;;;;8353715;28;20181;-67
2022/08/21 02:28:41;;;;;;;19.47;16.03;;;16.70;99.90;;;;;;8352666;28;20192;-71
2022/08/21 02:32:42;;;;;;;21.93;18.00;;;16.80;99.90;;;;;;8352439;28;20196;-68
2022/08/21 02:36:43;;;;;;;22.33;17.33;;;16.70;99.90;;;;;;8351738;28;20186;-68
2022/08/21 02:40:46;;;;;;;23.13;17.97;;;16.70;99.90;;;;;;8351486;28;20205;-68
2022/08/21 02:44:47;;;;;;;23.60;17.93;;;16.80;99.90;;;;;;8351259;28;20185;-68
2022/08/21 02:48:48;;;;;;;25.90;19.70;;;16.70;99.90;;;;;;8352073;28;20177;-67
2022/08/21 02:52:52;;;;;;;23.20;19.60;;;16.80;99.90;;;;;;8351402;28;20205;-67
2022/08/21 02:56:52;;;;;;;25.43;19.73;;;16.80;99.90;;;;;;8353013;28;20178;-67
2022/08/21 03:00:54;;;;;;;21.03;18.27;;;16.80;99.90;;;;;;8355129;28;20202;-67
2022/08/21 03:04:55;;;;;;;21.33;17.90;;;16.80;99.90;;;;;;8368050;28;20212;-70
2022/08/21 03:08:57;;;;;;;22.33;18.27;;;16.80;99.90;;;;;;8352646;28;20394;-67
2022/08/21 03:12:58;;;;;;;19.50;17.27;;;16.90;99.90;;;;;;8349145;28;20248;-67
2022/08/21 03:16:58;;;;;;;20.63;17.60;;;16.90;99.90;;;;;;8351242;28;20197;-68
2022/08/21 03:20:59;;;;;;;19.57;17.10;;;16.90;99.90;;;;;;8351019;28;20209;-67
2022/08/21 03:25:00;;;;;;;19.07;16.30;;;16.90;99.90;;;;;;8353805;28;20170;-68
2022/08/21 03:29:02;;;;;;;19.70;15.60;;;16.90;99.90;;;;;;8351278;28;20194;-67
2022/08/21 03:33:03;;;;;;;19.13;16.50;;;16.90;99.90;;;;;;8348728;28;20321;-67
2022/08/21 03:37:06;;;;;;;20.80;17.00;;;16.90;99.90;;;;;;8351743;28;20181;-67
2022/08/21 03:41:08;;;;;;;17.40;15.47;;;17.00;99.90;;;;;;8351205;28;20244;-67
2022/08/21 03:45:09;;;;;;;18.57;14.30;;;17.00;99.90;;;;;;8347405;28;20192;-67
2022/08/21 03:49:10;;;;;;;16.17;14.40;;;17.00;99.90;;;;;;8349545;28;20209;-66
2022/08/21 03:53:13;;;;;;;16.77;13.60;;;17.00;99.90;;;;;;8349369;28;20203;-67
2022/08/21 03:57:13;;;;;;;13.57;11.43;;;17.00;99.90;;;;;;8350905;28;20197;-66
2022/08/21 04:01:14;;;;;;;15.10;13.20;;;17.00;99.90;;;;;;8352109;28;20232;-68
2022/08/21 04:05:29;;;;;;;13.23;11.60;;;17.00;99.90;;;;;;8347895;28;20178;-67
2022/08/21 04:09:30;;;;;;;14.03;12.23;;;17.10;99.90;;;;;;8349597;28;20182;-67
2022/08/21 04:13:31;;;;;;;12.83;10.70;;;17.10;99.90;;;;;;8350528;28;20248;-66
2022/08/21 04:17:35;;;;;;;13.40;12.00;;;17.10;99.90;;;;;;8347089;28;20293;-69
2022/08/21 04:21:37;;;;;;;12.57;10.30;;;17.20;99.90;;;;;;8350220;28;20216;-66
2022/08/21 04:25:38;;;;;;;14.70;12.40;;;17.20;99.90;;;;;;8350937;28;20186;-66
2022/08/21 04:29:39;;;;;;;15.67;11.27;;;17.20;99.90;;;;;;8349245;28;20220;-65
2022/08/21 04:33:40;;;;;;;13.97;10.40;;;17.20;99.90;;;;;;8348623;28;20189;-66
2022/08/21 04:37:40;;;;;;;13.10;10.57;;;17.10;99.90;;;;;;8351377;28;20185;-67
2022/08/21 04:41:41;;;;;;;14.57;11.73;;;17.10;99.90;;;;;;8349889;28;20243;-66
2022/08/21 04:45:47;;;;;;;13.17;11.20;;;17.00;99.90;;;;;;8348796;28;20220;-67
2022/08/21 04:49:48;;;;;;;12.97;11.67;;;17.00;99.90;;;;;;8357754;28;20190;-66
2022/08/21 04:53:53;;;;;;;13.23;11.27;;;16.90;99.90;;;;;;8348988;28;20185;-66
2022/08/21 04:57:56;;;;;;;13.37;11.33;;;16.80;99.90;;;;;;8347934;28;20190;-66
2022/08/21 05:01:57;;;;;;;13.47;11.23;;;16.80;99.90;;;;;;8349368;28;20267;-65
2022/08/21 05:05:59;;;;;;;15.57;10.40;;;16.70;99.90;;;;;;8354662;28;20232;-68
2022/08/21 05:10:01;;;;;;;15.53;9.80;;;16.70;99.90;;;;;;8351561;28;20290;-68
2022/08/21 05:14:01;;;;;;;12.33;8.57;;;16.60;99.90;;;;;;8353531;28;20209;-66
2022/08/21 05:18:02;;;;;;;12.33;8.30;;;16.50;99.90;;;;;;8349416;28;20198;-67
2022/08/21 05:22:03;;;;;;;8.80;7.90;;;16.40;99.90;;;;;;8349520;28;20201;-66
2022/08/21 05:26:04;;;;;;;10.30;6.57;;;16.40;99.90;;;;;;8345781;28;20181;-66
2022/08/21 05:30:09;;;;;;;12.87;7.30;;;16.40;99.90;;;;;;8353161;28;20217;-66
2022/08/21 05:34:11;;;;;;;10.67;6.90;;;16.30;99.90;;;;;;8351334;28;20181;-66
2022/08/21 05:38:11;;;;;;;8.00;6.53;;;16.30;99.90;;;;;;8352608;28;20185;-66
2022/08/21 05:42:12;;;;;;;9.87;6.63;;;16.30;99.90;;;;;;8352382;28;20212;-66
2022/08/21 05:46:13;;;;;;;10.33;6.87;;;16.20;99.90;;;;;;8353942;28;20178;-66
2022/08/21 05:50:14;;;;;;;8.73;7.00;;;16.20;99.90;;;;;;8354413;28;20506;-67
2022/08/21 05:54:15;;;;;;;10.13;6.40;;;16.20;99.90;;;;;;8367130;28;20277;-67
2022/08/21 05:58:18;;;;;;;12.17;6.03;;;16.20;99.90;;;;;;8356701;28;20185;-67
2022/08/21 06:02:20;;;;;;;10.17;6.40;;;16.20;99.90;;;;;;8383099;28;20206;-67
2022/08/21 06:06:21;;;;;;;7.40;5.47;;;16.20;99.90;;;;;;8352860;28;20288;-68
2022/08/21 06:10:22;;;;;;;7.80;5.80;;;16.20;99.90;;;;;;8357319;28;20197;-68
2022/08/21 06:14:23;;;;;;;9.77;5.37;;;16.20;99.90;;;;;;8353292;28;20205;-68
2022/08/21 06:18:24;;;;;;;9.87;6.53;;;16.20;99.90;;;;;;8351355;28;20269;-68
2022/08/21 06:22:24;;;;;;;9.80;5.87;;;16.20;99.90;;;;;;8355077;28;20205;-68
2022/08/21 06:26:25;;;;;;;5.87;5.13;;;16.20;99.90;;;;;;8355499;28;20185;-68
2022/08/21 06:30:27;;;;;;;6.03;5.03;;;16.20;99.90;;;;;;8352490;28;20174;-68
2022/08/21 06:34:28;;;;;;;7.93;5.13;;;16.20;99.90;;;;;;8386676;28;20178;-68
2022/08/21 06:38:28;;;;;;;7.20;5.83;;;16.30;99.90;;;;;;8349710;28;20228;-68
2022/08/21 06:42:29;;;;;;;10.70;6.33;;;16.40;99.90;;;;;;8352302;28;20209;-68
2022/08/21 06:46:31;;;;;;;9.50;6.00;;;16.30;99.90;;;;;;8348276;28;20216;-67
2022/08/21 06:50:32;;;;;;;8.73;6.07;;;16.20;99.90;;;;;;8353601;28;20220;-67
2022/08/21 06:54:32;;;;;;;7.70;5.67;;;16.20;99.90;;;;;;8354356;28;20208;-68
2022/08/21 06:58:33;;;;;;;11.30;5.80;;;16.20;99.90;;;;;;8353579;28;20186;-68
2022/08/21 07:02:34;;;;;;;10.83;5.57;;;16.20;99.90;;;;;;8353140;28;20212;-68
2022/08/21 07:06:35;;;;;;;8.30;5.67;;;16.20;99.90;;;;;;8350338;28;20209;-68
2022/08/21 07:10:36;;;;;;;9.80;6.13;;;16.20;99.90;;;;;;8349761;28;20190;-68
2022/08/21 07:14:37;;;;;;;7.63;5.47;;;16.20;99.90;;;;;;8352065;28;20233;-68
2022/08/21 07:18:38;;;;;;;7.00;5.67;;;16.30;99.90;;;;;;8350173;28;20245;-68
2022/08/21 07:22:39;;;;;;;5.37;4.77;;;16.30;99.90;;;;;;8348994;28;20217;-68
2022/08/21 07:26:41;;;;;;;8.93;6.17;;;16.40;99.90;;;;;;8383127;28;20212;-68
2022/08/21 07:30:42;;;;;;;8.03;5.30;;;16.50;99.90;;;;;;8352113;28;20182;-67
2022/08/21 07:34:43;;;;;;;7.67;5.60;;;16.50;99.90;;;;;;8349426;28;20590;-69
2022/08/21 07:38:45;;;;;;;6.03;5.03;;;16.50;99.90;;;;;;8351150;28;20188;-68
2022/08/21 07:42:49;;;;;;;9.10;5.77;;;16.50;99.90;;;;;;8352829;28;20212;-67
2022/08/21 07:46:50;;;;;;;6.53;5.23;;;16.40;99.90;;;;;;8347984;28;20174;-67
2022/08/21 07:50:51;;;;;;;7.73;6.10;;;16.40;99.90;;;;;;8351412;28;20267;-67
2022/08/21 07:54:52;;;;;;;6.67;5.63;;;16.40;99.90;;;;;;8354475;28;20181;-67
2022/08/21 07:58:54;;;;;;;5.40;4.87;;;16.40;99.90;;;;;;8347751;28;20229;-67
2022/08/21 08:02:55;;;;;;;7.17;5.53;;;16.50;99.90;;;;;;8347020;28;20213;-67
2022/08/21 08:06:56;;;;;;;7.53;5.90;;;16.50;99.90;;;;;;8350769;28;20174;-67
2022/08/21 08:10:58;;;;;;;7.03;5.37;;;16.50;99.90;;;;;;8347483;28;20181;-68
2022/08/21 08:15:00;;;;;;;7.40;6.03;;;16.50;99.90;;;;;;8349738;28;20269;-68
2022/08/21 08:19:01;;;;;;;7.87;6.77;;;16.60;99.90;;;;;;8356934;28;20220;-67
2022/08/21 08:23:02;;;;;;;8.80;6.53;;;16.60;99.90;;;;;;8349927;28;20457;-68
2022/08/21 08:27:03;;;;;;;11.90;7.17;;;16.60;99.90;;;;;;8349108;28;20220;-68
2022/08/21 08:31:04;;;;;;;10.30;6.87;;;16.60;99.90;;;;;;8348202;28;20185;-68
2022/08/21 08:35:07;;;;;;;7.53;6.67;;;16.60;99.90;;;;;;8346384;28;20216;-68
2022/08/21 08:39:11;;;;;;;8.43;6.53;;;16.70;99.90;;;;;;8336955;28;20182;-68
2022/08/21 08:43:13;;;;;;;8.50;6.97;;;16.80;99.90;;;;;;8344655;28;20178;-68
2022/08/21 08:47:17;;;;;;;9.50;7.33;;;16.90;99.90;;;;;;8346519;28;20170;-69
2022/08/21 08:51:24;;;;;;;9.33;7.53;;;16.90;99.90;;;;;;8348653;28;20189;-67
2022/08/21 08:55:45;;;;;;;9.60;7.00;;;16.90;99.90;;;;;;8342932;28;20182;-68
2022/08/21 08:59:54;;;;;;;9.40;7.17;;;17.00;99.90;;;;;;8348837;28;20237;-68
2022/08/21 09:03:57;;;;;;;10.23;7.00;;;17.10;99.90;;;;;;8350605;28;20177;-69
2022/08/21 09:08:17;;;;;;;8.90;7.00;;;17.20;99.90;;;;;;8346436;28;20239;-68
2022/08/21 09:12:18;;;;;;;9.87;7.53;;;17.40;99.90;;;;;;8345885;28;20205;-68
2022/08/21 09:16:43;;;;;;;7.53;6.60;;;17.60;99.90;;;;;;8348681;28;20200;-68
2022/08/21 09:21:22;;;;;;;8.17;6.70;;;17.80;99.90;;;;;;8346205;28;20254;-69
2022/08/21 09:25:27;;;;;;;9.43;6.57;;;17.90;99.90;;;;;;8377402;28;20194;-68
2022/08/21 09:29:33;;;;;;;8.83;6.87;;;18.00;99.90;;;;;;8348097;28;20193;-67
2022/08/21 09:33:34;;;;;;;10.10;6.57;;;18.10;99.90;;;;;;8348938;28;20185;-69
2022/08/21 09:37:46;;;;;;;8.33;6.70;;;18.20;99.90;;;;;;8348391;28;20193;-69
2022/08/21 09:41:59;;;;;;;7.10;6.40;;;18.20;99.90;;;;;;8347859;28;20214;-69
2022/08/21 09:46:22;;;;;;;6.87;6.17;;;18.30;99.90;;;;;;8338672;28;20289;-68
2022/08/21 09:50:26;;;;;;;10.17;7.37;;;18.40;99.90;;;;;;8358794;28;20185;-68
2022/08/21 09:54:34;;;;;;;9.93;7.40;;;18.20;99.90;;;;;;8348506;28;20185;-68
2022/08/21 09:58:37;;;;;;;11.23;7.37;;;18.00;99.90;;;;;;8345584;28;20193;-68
2022/08/21 10:02:38;;;;;;;12.10;7.87;;;18.00;99.90;;;;;;8345266;28;20220;-69
2022/08/21 10:06:40;;;;;;;10.17;7.57;;;17.90;99.90;;;;;;8346134;28;20189;-70
2022/08/21 10:10:41;;;;;;;9.17;6.97;;;18.00;99.90;;;;;;8348384;28;20186;-67
2022/08/21 10:14:59;;;;;;;10.10;7.43;;;18.10;99.90;;;;;;8352263;28;20202;-66
2022/08/21 10:19:21;;;;;;;9.57;7.30;;;18.10;99.90;;;;;;8353316;28;20190;-69
2022/08/21 10:24:01;;;;;;;8.57;7.40;;;18.30;99.90;;;;;;8354779;28;20189;-69
2022/08/21 10:28:42;;;;;;;9.40;7.17;;;18.60;99.90;;;;;;8352654;28;20907;-68
2022/08/21 10:32:55;;;;;;;8.33;6.47;;;18.80;99.90;;;;;;8343035;28;20202;-67
2022/08/21 10:37:28;;;;;;;7.63;6.83;;;18.70;99.90;;;;;;8364994;28;20594;-68
2022/08/21 10:41:49;;;;;;;8.20;7.10;;;18.80;99.90;;;;;;8338533;28;20240;-68
2022/08/21 10:45:50;;;;;;;9.73;7.37;;;19.00;99.90;;;;;;8350469;28;20505;-68
2022/08/21 10:50:12;;;;;;;9.60;6.60;;;19.20;99.90;;;;;;8352696;28;20186;-68
2022/08/21 10:54:50;;;;;;;9.03;7.33;;;19.40;99.90;;;;;;8346340;28;20185;-68
2022/08/21 10:59:13;;;;;;;6.83;5.30;;;19.50;99.90;;;;;;8346878;28;20205;-68
2022/08/21 11:03:33;;;;;;;6.60;5.77;;;19.40;99.90;;;;;;8361800;28;20197;-67
2022/08/21 11:08:01;;;;;;;8.57;6.67;;;19.50;99.90;;;;;;8351805;28;20206;-66
2022/08/21 11:12:29;;;;;;;7.40;5.53;;;19.60;99.90;;;;;;8370482;28;20213;-68
2022/08/21 11:16:37;;;;;;;9.43;6.63;;;19.70;99.90;;;;;;8366551;28;20283;-67
2022/08/21 11:20:43;;;;;;;10.17;6.40;;;19.60;99.90;;;;;;8348434;28;20198;-66
2022/08/21 11:25:21;;;;;;;9.30;5.90;;;19.40;99.90;;;;;;8349048;28;20209;-67
2022/08/21 11:29:39;;;;;;;8.00;6.27;;;19.50;99.90;;;;;;8343198;28;20174;-69
2022/08/21 11:33:46;;;;;;;8.67;5.70;;;19.70;99.90;;;;;;8358594;28;20212;-67
2022/08/21 11:38:38;;;;;;;7.33;5.47;;;19.80;99.90;;;;;;8348118;28;20174;-67
2022/08/21 11:43:10;;;;;;;9.30;5.93;;;19.80;99.90;;;;;;8347225;28;20233;-65
2022/08/21 11:47:34;;;;;;;8.13;5.90;;;19.80;99.90;;;;;;8354375;28;20178;-65
2022/08/21 11:51:47;;;;;;;9.80;6.10;;;19.70;99.90;;;;;;8345823;28;20265;-66
2022/08/21 11:55:59;;;;;;;7.97;5.90;;;19.90;99.90;;;;;;8353578;28;20221;-67
2022/08/21 12:00:04;;;;;;;8.57;6.27;;;19.80;99.90;;;;;;8359661;28;20293;-70
2022/08/21 12:04:34;;;;;;;9.10;6.13;;;19.60;99.90;;;;;;8363778;28;20208;-67
2022/08/21 12:08:43;;;;;;;8.87;6.30;;;19.40;99.90;;;;;;8351064;28;20220;-67
2022/08/21 12:12:45;;;;;;;8.77;5.83;;;19.40;99.90;;;;;;8344965;28;20209;-67
2022/08/21 12:16:49;;;;;;;10.33;5.67;;;19.30;99.90;;;;;;8348940;28;20208;-68
2022/08/21 12:21:20;;;;;;;8.13;5.77;;;19.20;99.90;;;;;;8358631;28;20554;-68
2022/08/21 12:25:22;;;;;;;6.67;5.53;;;19.10;99.90;;;;;;8346246;28;20177;-68
2022/08/21 12:29:33;;;;;;;9.07;5.70;;;19.20;99.90;;;;;;8356602;28;20230;-69
2022/08/21 12:33:39;;;;;;;8.17;5.13;;;19.30;99.90;;;;;;8349869;28;20262;-68
2022/08/21 12:37:45;;;;;;;12.00;5.53;;;19.50;99.90;;;;;;8346070;28;20186;-68
2022/08/21 12:42:21;;;;;;;8.83;4.80;;;19.70;99.90;;;;;;8347580;28;20221;-68
2022/08/21 12:46:40;;;;;;;7.03;4.80;;;19.70;99.90;;;;;;8369536;28;20218;-67
2022/08/21 12:51:05;;;;;;;8.57;4.40;;;19.70;99.90;;;;;;8350461;28;20190;-68
2022/08/21 12:55:11;;;;;;;5.33;4.00;;;19.70;99.90;;;;;;8348797;28;20193;-68
2022/08/21 12:59:13;;;;;;;4.03;3.50;;;19.60;99.90;;;;;;8352289;28;20196;-68
2022/08/21 13:03:15;;;;;;;8.07;4.17;;;19.60;99.90;;;;;;8346804;28;20182;-70
2022/08/21 13:07:25;;;;;;;9.63;4.10;;;19.40;99.90;;;;;;8380601;28;20193;-68
2022/08/21 13:11:26;;;;;;;7.30;4.17;;;19.40;99.90;;;;;;8365226;28;20694;-68
2022/08/21 13:15:34;;;;;;;5.83;3.70;;;19.40;99.90;;;;;;8349737;28;20239;-68
2022/08/21 13:19:35;;;;;;;4.50;3.77;;;19.30;99.90;;;;;;8343904;28;20206;-69
2022/08/21 13:23:38;;;;;;;7.07;4.30;;;19.30;99.90;;;;;;8347931;28;20179;-67
2022/08/21 13:27:40;;;;;;;9.87;4.63;;;19.30;99.90;;;;;;8350144;28;20697;-68
2022/08/21 13:31:47;;;;;;;7.67;4.50;;;19.30;99.90;;;;;;8350173;28;20602;-69
2022/08/21 13:36:04;;;;;;;5.03;4.50;;;19.40;99.90;;;;;;8362410;28;20209;-68
2022/08/21 13:40:09;;;;;;;5.77;4.23;;;19.50;99.90;;;;;;8341480;28;20279;-68
2022/08/21 13:44:17;;;;;;;7.43;4.80;;;19.40;99.90;;;;;;8351358;28;20182;-68
2022/08/21 13:48:21;;;;;;;7.03;4.60;;;19.40;99.90;;;;;;8348109;28;20177;-69
2022/08/21 13:52:25;;;;;;;9.10;5.37;;;19.30;99.90;;;;;;8352476;28;20182;-68
2022/08/21 13:56:30;;;;;;;9.27;5.13;;;19.20;99.90;;;;;;8350972;28;20186;-68
2022/08/21 14:00:44;;;;;;;8.57;5.47;;;19.20;99.90;;;;;;8352350;28;20209;-69
2022/08/21 14:05:01;;;;;;;6.77;4.53;;;19.20;99.90;;;;;;8334355;28;20187;-68
2022/08/21 14:09:23;;;;;;;6.37;5.20;;;19.20;99.90;;;;;;8355468;28;20181;-69
2022/08/21 14:13:43;;;;;;;6.87;4.80;;;19.40;99.90;;;;;;8350441;28;20198;-69
2022/08/21 14:17:45;;;;;;;9.37;4.60;;;19.60;99.90;;;;;;8354863;28;20201;-69
2022/08/21 14:21:48;;;;;;;6.83;4.77;;;19.60;99.90;;;;;;8348767;28;20225;-71
2022/08/21 14:25:49;;;;;;;8.30;4.40;;;19.70;99.90;;;;;;8360096;28;20186;-68
2022/08/21 14:29:56;;;;;;;6.00;4.37;;;19.70;99.90;;;;;;8353306;28;20180;-69
2022/08/21 14:33:58;;;;;;;6.80;5.07;;;19.60;99.90;;;;;;8347992;28;20186;-70
2022/08/21 14:37:59;;;;;;;7.60;4.70;;;19.50;99.90;;;;;;8352537;28;20637;-69
2022/08/21 14:42:01;;;;;;;8.33;5.07;;;19.40;99.90;;;;;;8338115;28;20209;-69
2022/08/21 14:46:02;;;;;;;8.13;5.10;;;19.20;99.90;;;;;;8353030;28;20178;-69
2022/08/21 14:50:03;;;;;;;7.60;4.93;;;19.20;99.90;;;;;;8365840;28;20200;-69
2022/08/21 14:54:08;;;;;;;9.73;5.27;;;19.10;99.90;;;;;;8353279;28;20189;-68
2022/08/21 14:58:10;;;;;;;5.67;5.07;;;19.10;99.90;;;;;;8366806;28;20186;-69
2022/08/21 15:02:11;;;;;;;5.83;4.93;;;19.10;99.90;;;;;;8351055;28;20304;-69
2022/08/21 15:06:12;;;;;;;8.93;5.00;;;19.20;99.90;;;;;;8362803;28;20178;-68
2022/08/21 15:10:16;;;;;;;6.93;5.23;;;19.10;99.90;;;;;;8354703;28;20193;-70
2022/08/21 15:14:31;;;;;;;7.97;5.70;;;19.20;99.90;;;;;;8350846;28;20236;-68
2022/08/21 15:18:32;;;;;;;7.80;6.03;;;19.10;99.90;;;;;;8351707;28;20279;-69
2022/08/21 15:22:33;;;;;;;9.53;6.33;;;19.10;99.90;;;;;;8348777;28;20292;-69
2022/08/21 15:26:35;;;;;;;8.83;5.67;;;19.10;99.90;;;;;;8346633;28;20175;-69
2022/08/21 15:30:39;;;;;;;8.30;5.20;;;19.10;99.90;;;;;;8351377;28;20193;-69
2022/08/21 15:34:40;;;;;;;7.20;5.10;;;19.20;99.90;;;;;;8349949;28;20182;-69
2022/08/21 15:38:41;;;;;;;6.17;4.37;;;19.30;99.90;;;;;;8349573;28;20205;-70
2022/08/21 15:42:43;;;;;;;7.07;4.83;;;19.20;99.90;;;;;;8351366;28;20205;-69
2022/08/21 15:46:44;;;;;;;9.43;4.57;;;19.30;99.90;;;;;;8333507;28;20269;-68
2022/08/21 15:50:46;;;;;;;6.57;4.70;;;19.30;99.90;;;;;;8354551;28;20185;-68
2022/08/21 15:54:47;;;;;;;5.20;4.70;;;19.30;99.90;;;;;;8352899;28;20244;-68
2022/08/21 15:58:58;;;;;;;6.07;5.47;;;19.30;99.90;;;;;;8350488;28;20255;-69
2022/08/21 16:02:59;;;;;;;6.37;5.63;;;19.20;99.90;;;;;;8371443;28;20267;-69
2022/08/21 16:07:04;;;;;;;6.00;5.50;;;19.20;99.90;;;;;;8354527;28;20174;-69
2022/08/21 16:11:05;;;;;;;6.73;5.10;;;19.10;99.90;;;;;;8353270;28;20205;-69
2022/08/21 16:15:10;;;;;;;5.40;4.90;;;19.10;99.90;;;;;;8350632;28;20210;-68
2022/08/21 16:19:18;;;;;;;5.73;5.10;;;19.00;99.90;;;;;;8343983;28;20261;-69
2022/08/21 16:23:20;;;;;;;7.30;6.03;;;19.10;99.90;;;;;;8351041;28;20236;-68
2022/08/21 16:27:22;;;;;;;10.10;5.27;;;19.00;99.90;;;;;;8350216;28;20228;-69
2022/08/21 16:31:24;;;;;;;5.53;5.03;;;18.90;99.90;;;;;;8366378;28;20182;-68
2022/08/21 16:35:27;;;;;;;7.50;5.47;;;18.90;99.90;;;;;;8331022;28;20190;-69
2022/08/21 16:39:28;;;;;;;6.23;5.20;;;18.90;99.90;;;;;;8345820;28;20305;-68
2022/08/21 16:43:30;;;;;;;7.33;5.57;;;18.80;99.90;;;;;;8364323;28;20174;-68
2022/08/21 16:47:31;;;;;;;5.90;5.30;;;18.70;99.90;;;;;;8346863;28;20182;-68
2022/08/21 16:51:33;;;;;;;8.37;5.77;;;18.60;99.90;;;;;;8345513;28;20217;-69
2022/08/21 16:55:35;;;;;;;9.77;5.77;;;18.60;99.90;;;;;;8347982;28;20182;-69
2022/08/21 16:59:38;;;;;;;6.97;4.97;;;18.50;99.90;;;;;;8348316;28;20189;-68
2022/08/21 17:03:44;;;;;;;6.37;4.33;;;18.40;99.90;;;;;;8344168;28;20213;-68
2022/08/21 17:07:45;;;;;;;5.63;5.00;;;18.40;99.90;;;;;;8346528;28;20186;-69
2022/08/21 17:11:48;;;;;;;6.27;4.90;;;18.20;99.90;;;;;;8345094;28;20213;-68
2022/08/21 17:15:49;;;;;;;5.10;4.60;;;18.10;99.90;;;;;;8355548;28;20205;-67
2022/08/21 17:19:50;;;;;;;6.27;4.67;;;18.10;99.90;;;;;;8348476;28;20283;-68
2022/08/21 17:23:51;;;;;;;4.77;3.90;;;18.10;99.90;;;;;;8355658;28;20177;-70
2022/08/21 17:27:53;;;;;;;4.53;4.10;;;18.10;99.90;;;;;;8359728;28;20173;-69
2022/08/21 17:31:56;;;;;;;5.93;4.83;;;18.10;99.90;;;;;;8361046;28;20186;-68
2022/08/21 17:35:57;;;;;;;5.27;4.77;;;18.00;99.90;;;;;;8359868;28;20185;-68
2022/08/21 17:39:58;;;;;;;6.77;5.17;;;17.90;99.90;;;;;;8374974;28;20207;-69
2022/08/21 17:44:05;;;;;;;6.30;4.83;;;17.90;99.90;;;;;;8359136;28;20178;-68
2022/08/21 17:48:07;;;;;;;8.20;5.83;;;18.00;99.90;;;;;;8374389;28;20177;-68
2022/08/21 17:52:09;;;;;;;6.47;5.20;;;18.20;99.90;;;;;;8368029;28;20192;-69
2022/08/21 17:56:13;;;;;;;3.90;3.50;;;18.10;99.90;;;;;;8375029;28;20182;-68
2022/08/21 18:00:16;;;;;;;4.97;4.43;;;18.10;99.90;;;;;;8350655;28;20213;-69
2022/08/21 18:04:17;;;;;;;4.47;3.70;;;18.00;99.90;;;;;;8341863;28;20181;-69
2022/08/21 18:08:18;;;;;;;4.73;4.20;;;18.00;99.90;;;;;;8359411;28;20181;-69
2022/08/21 18:12:19;;;;;;;6.10;4.47;;;18.00;99.90;;;;;;8361347;28;20206;-69
2022/08/21 18:16:21;;;;;;;4.67;4.00;;;18.00;99.90;;;;;;8358153;28;20213;-67
2022/08/21 18:20:22;;;;;;;4.80;3.63;;;17.90;99.90;;;;;;8357102;28;20205;-68
2022/08/21 18:24:23;;;;;;;8.73;4.33;;;17.90;99.90;;;;;;8363676;28;20178;-68
2022/08/21 18:28:25;;;;;;;5.00;4.30;;;17.80;99.90;;;;;;8364979;28;20186;-68
2022/08/21 18:32:28;;;;;;;6.17;4.63;;;17.80;99.90;;;;;;8369144;28;20193;-67
2022/08/21 18:36:29;;;;;;;6.20;3.80;;;17.70;99.90;;;;;;8354974;28;20186;-68
2022/08/21 18:40:32;;;;;;;4.27;3.83;;;17.60;99.90;;;;;;8352161;28;20228;-68
2022/08/21 18:44:38;;;;;;;6.73;3.43;;;17.50;99.90;;;;;;8342879;28;20255;-68
2022/08/21 18:48:40;;;;;;;5.03;3.70;;;17.50;99.90;;;;;;8368149;28;20213;-67
2022/08/21 18:52:41;;;;;;;5.77;4.17;;;17.40;99.90;;;;;;8350997;28;20683;-68
2022/08/21 18:56:44;;;;;;;5.57;4.13;;;17.30;99.90;;;;;;8369432;28;20518;-68
2022/08/21 19:00:48;;;;;;;4.77;3.70;;;17.20;99.90;;;;;;8352571;28;20276;-68
2022/08/21 19:04:49;;;;;;;8.10;5.60;;;17.10;99.90;;;;;;8356580;28;20186;-68
2022/08/21 19:08:55;;;;;;;6.13;4.17;;;17.10;99.90;;;;;;8352670;28;20270;-71
2022/08/21 19:13:01;;;;;;;7.50;6.80;;;17.00;99.90;;;;;;8349553;28;20221;-68
2022/08/21 19:17:02;;;;;;;8.83;7.60;;;16.90;99.90;;;;;;8354646;28;20293;-70
2022/08/21 19:21:04;;;;;;;10.53;9.30;;;16.80;99.90;;;;;;8337291;28;20225;-67
2022/08/21 19:25:07;;;;;;;7.93;6.00;;;16.80;99.90;;;;;;8357533;28;20228;-68
2022/08/21 19:29:08;;;;;;;5.90;5.10;;;16.70;99.90;;;;;;8355111;28;20193;-69
2022/08/21 19:33:15;;;;;;;4.60;4.20;;;16.70;99.90;;;;;;8362580;28;20197;-69
2022/08/21 19:37:16;;;;;;;5.50;4.43;;;16.60;99.90;;;;;;8372189;28;20224;-69
2022/08/21 19:41:20;;;;;;;4.77;4.07;;;16.60;99.90;;;;;;8355959;28;20201;-69
2022/08/21 19:45:23;;;;;;;4.00;3.70;;;16.50;99.90;;;;;;8354875;28;20220;-68
2022/08/21 19:49:30;;;;;;;3.77;3.47;;;16.50;99.90;;;;;;8350031;28;20205;-68
2022/08/21 19:53:33;;;;;;;3.27;2.97;;;16.50;99.90;;;;;;8383646;28;20185;-68
2022/08/21 19:57:35;;;;;;;3.50;3.20;;;16.50;99.90;;;;;;8350375;28;20185;-68
2022/08/21 20:01:36;;;;;;;3.20;2.90;;;16.50;99.90;;;;;;8351713;28;20328;-68
2022/08/21 20:05:39;;;;;;;3.33;3.03;;;16.50;99.90;;;;;;8349499;28;20190;-68
2022/08/21 20:09:44;;;;;;;3.07;2.77;;;16.40;99.90;;;;;;8353718;28;20186;-68
2022/08/21 20:13:46;;;;;;;3.43;3.13;;;16.50;99.90;;;;;;8349629;28;20204;-69
2022/08/21 20:17:48;;;;;;;3.17;2.87;;;16.40;99.90;;;;;;8344445;28;20201;-68
2022/08/21 20:21:49;;;;;;;3.97;2.77;;;16.50;99.90;;;;;;8352870;28;20218;-68
2022/08/21 20:25:51;;;;;;;2.93;2.73;;;16.40;99.90;;;;;;8351391;28;20186;-68
2022/08/21 20:29:52;;;;;;;3.00;2.73;;;16.40;99.90;;;;;;8350595;28;20200;-68
2022/08/21 20:33:53;;;;;;;2.70;2.50;;;16.40;99.90;;;;;;8353174;28;20190;-68
2022/08/21 20:37:54;;;;;;;2.50;2.30;;;16.40;99.90;;;;;;8351655;28;20200;-69
2022/08/21 20:41:56;;;;;;;3.67;2.63;;;16.40;99.90;;;;;;8348071;28;20205;-68
2022/08/21 20:45:59;;;;;;;4.07;3.17;;;16.30;99.90;;;;;;8350794;28;20193;-68
2022/08/21 20:50:06;;;;;;;3.77;2.77;;;16.30;99.90;;;;;;8349029;28;20499;-68
2022/08/21 20:54:20;;;;;;;3.40;2.70;;;16.30;99.90;;;;;;8348483;28;20217;-69
2022/08/21 20:58:35;;;;;;;3.70;2.77;;;16.30;99.90;;;;;;8348452;28;20201;-68
2022/08/21 21:02:51;;;;;;;4.50;2.63;;;16.30;99.90;;;;;;8353465;28;20217;-68
2022/08/21 21:06:53;;;;;;;2.90;2.57;;;16.20;99.90;;;;;;8345435;28;20196;-68